• Join FlightAware (Why Join?)
  • Login
  • US Flag 
04:33AM EDT


 

Airport Tracker/Info


-or-


 

Live Flight TrackerFlight Track Log ✈ FLG3314 ✈ 27-Aug-2013 ✈ KPVD - KMSP

Flight Track Log - Related Links

Times and Time Zones

All times are in EDT time to prevent confusion due to time zone crossing. See the FLG3314 flight status page for this flight to view local times or setup timezone preferences in your user account.

Time Position Orientation Groundspeed Altitude Reporting Facility
EDT Latitude Longitude Course Direction KTS MPH feet Rate Location/Type
06:32PM 41.7331 -71.4192 357° North 145 167 700  Level Boston Center
06:32PM 41.7603 -71.4214 357° North 160 184 2,000 2,100 Climbing Boston Center
06:33PM 41.8061 -71.4431 341° North 209 241 3,900 1,980 Climbing Boston Center
06:34PM 41.8400 -71.4983 309° West 248 285 5,500 2,640 Climbing Boston Center
06:35PM 41.8719 -71.5953 294° West 275 316 8,700 2,220 Climbing Boston Center
06:36PM 41.9083 -71.6981 295° West 302 348 10,000 1,680 Climbing Boston Center
06:37PM 41.9878 -71.7531 333° Northwest 313 360 12,200 2,400 Climbing Boston Center
06:38PM 42.0675 -71.8361 322° Northwest 321 369 15,000 2,400 Climbing Boston Center
06:39PM 42.0828 -71.9731 279° West 346 398 17,000 2,040 Climbing Boston Center
06:40PM 42.0978 -72.1128 278° West 371 427 19,000 1,740 Climbing Boston Center
06:41PM 42.1106 -72.2442 278° West 386 444 20,600 1,680 Climbing Boston Center
06:42PM 42.1358 -72.3869 283° West 397 457 22,400 1,680 Climbing Boston Center
06:43PM 42.1753 -72.5297 290° West 397 457 24,100 1,560 Climbing Boston Center
06:44PM 42.2147 -72.6728 290° West 402 463 25,600 1,440 Climbing Boston Center
06:45PM 42.2558 -72.8189 291° West 407 468 27,000 1,500 Climbing Boston Center
06:46PM 42.3053 -72.9678 294° West 412 474 28,600 1,680 Climbing Boston Center
06:47PM 42.3525 -73.1086 294° West 417 480 30,500 1,680 Climbing Boston Center
06:48PM 42.3911 -73.2553 290° West 412 474 32,000 1,440 Climbing Boston Center
06:49PM 42.4336 -73.4217 289° West 428 493 33,400 1,560 Climbing Boston Center
06:50PM 42.4742 -73.5603 292° West 421 484 35,100 1,260 Climbing Boston Center
06:51PM 42.5103 -73.6961 290° West 404 465 36,000 420 Climbing Boston Center
06:52PM 42.5503 -73.8381 291° West 398 458 36,000  Level Boston Center
06:53PM 42.5881 -73.9797 290° West 398 458 36,000  Level Boston Center
06:54PM 42.6194 -74.1047 289° West 393 452 36,000  Level Boston Center
06:55PM 42.6464 -74.2494 284° West 393 452 36,000 240 Level Boston Center
06:56PM 42.6586 -74.4022 276° West 399 459 36,600 660 Climbing Boston Center
06:57PM 42.6728 -74.5467 278° West 399 459 37,300 660 Climbing Boston Center
06:58PM 42.6822 -74.6969 275° West 399 459 38,000 300 Climbing Boston Center
06:59PM 42.6981 -74.8442 278° West 399 459 38,000  Level Boston Center
07:00PM 42.7219 -74.9950 282° West 406 467 38,000  Level Boston Center
07:01PM 42.7456 -75.1431 282° West 411 473 38,000  Level Boston Center
07:02PM 42.7692 -75.2883 283° West 405 466 38,000  Level Boston Center
07:03PM 42.7903 -75.4364 281° West 405 466 38,000  Level Boston Center
07:04PM 42.8156 -75.5822 283° West 400 460 38,000  Level Boston Center
07:06PM 42.8661 -75.9169 282° West 409 471 38,000  Level Cleveland Center
07:07PM 42.8886 -76.0628 282° West 409 471 38,000  Level Cleveland Center
07:09PM 42.9167 -76.2167 284° West 390 449 38,000  Level Toronto Center
07:09PM 42.9328 -76.3461 280° West 399 459 38,000  Level Cleveland Center
07:10PM 42.9528 -76.4953 280° West 399 459 38,000  Level Cleveland Center
07:11PM 42.9744 -76.6414 282° West 399 459 38,000  Level Cleveland Center
07:12PM 42.9983 -76.7961 282° West 394 453 38,000  Level Cleveland Center
07:13PM 43.0400 -76.9242 294° West 383 441 38,000  Level Cleveland Center
07:14PM 43.0961 -77.0461 302° West 377 434 38,000  Level Cleveland Center
07:15PM 43.1494 -77.1625 302° West 366 421 38,000  Level Cleveland Center
07:16PM 43.2050 -77.2792 303° West 366 421 38,000  Level Cleveland Center
07:17PM 43.2606 -77.3989 303° West 366 421 38,000  Level Cleveland Center
07:18PM 43.3136 -77.5158 302° West 371 427 38,000  Level Cleveland Center
07:19PM 43.3689 -77.6303 304° West 371 427 38,000  Level Cleveland Center
07:20PM 43.4217 -77.7478 302° West 371 427 38,000  Level Cleveland Center
07:21PM 43.4786 -77.8653 304° West 371 427 38,000  Level Cleveland Center
07:22PM 43.5292 -77.9719 303° West 371 427 38,000  Level Cleveland Center
07:23PM 43.5836 -78.0872 303° West 371 427 38,000  Level Cleveland Center
07:24PM 43.6383 -78.2083 302° West 371 427 38,000  Level Cleveland Center
07:25PM 43.6908 -78.3269 302° West 366 421 38,000  Level Cleveland Center
07:28PM 43.8000 -78.5667 302° West 370 426 38,000  Level Toronto Center
07:29PM 43.8500 -78.7000 298° West 370 426 38,000  Level Toronto Center
07:30PM 43.9000 -78.8167 301° West 370 426 38,000  Level Toronto Center
07:31PM 43.9500 -78.9667 295° West 370 426 38,000  Level Toronto Center
07:32PM 43.9833 -79.0833 292° West 380 437 38,000  Level Toronto Center
07:33PM 44.0167 -79.2333 287° West 380 437 38,000  Level Toronto Center
07:34PM 44.0333 -79.3833 279° West 380 437 38,000  Level Toronto Center
07:35PM 44.0667 -79.5167 289° West 380 437 38,000  Level Toronto Center
07:36PM 44.1000 -79.6500 289° West 380 437 38,000  Level Toronto Center
07:37PM 44.1167 -79.8000 279° West 380 437 38,000  Level Toronto Center
07:38PM 44.1500 -79.9333 289° West 380 437 38,000  Level Toronto Center
07:39PM 44.1667 -80.1000 278° West 380 437 38,000  Level Toronto Center
07:40PM 44.2000 -80.2333 289° West 380 437 38,000  Level Toronto Center
07:41PM 44.2333 -80.3833 287° West 380 437 38,000  Level Toronto Center
07:42PM 44.2500 -80.5167 280° West 380 437 38,000  Level Toronto Center
07:43PM 44.2833 -80.6500 289° West 380 437 38,000  Level Toronto Center
07:44PM 44.3167 -80.8000 287° West 390 449 38,000  Level Toronto Center
07:45PM 44.3333 -80.9333 280° West 380 437 38,000  Level Toronto Center
07:46PM 44.3500 -81.1000 278° West 380 437 38,000  Level Toronto Center
07:47PM 44.3833 -81.2500 287° West 380 437 38,000  Level Toronto Center
07:48PM 44.4167 -81.3833 289° West 390 449 38,000  Level Toronto Center
07:49PM 44.4333 -81.5167 280° West 390 449 38,000  Level Toronto Center
07:50PM 44.4667 -81.6667 287° West 390 449 38,000  Level Toronto Center
07:51PM 44.5000 -81.8000 289° West 390 449 38,000  Level Toronto Center
07:52PM 44.5167 -81.9667 278° West 390 449 38,000  Level Toronto Center
07:53PM 44.5500 -82.1167 287° West 390 449 38,000  Level Toronto Center
07:54PM 44.5667 -82.2500 280° West 390 449 38,000  Level Toronto Center
07:55PM 44.6000 -82.4000 287° West 390 449 38,000  Level Toronto Center
07:56PM 44.6333 -82.5667 286° West 390 449 38,000  Level Toronto Center
07:57PM 44.6500 -82.7000 280° West 390 449 38,000  Level Toronto Center
07:58PM 44.6667 -82.8500 279° West 380 437 38,000  Level Toronto Center
07:59PM 44.7000 -82.9833 289° West 390 449 38,000  Level Toronto Center
07:59PM 44.7317 -83.0547 302° West 392 451 38,000  Level Minneapolis Center
08:00PM 44.7531 -83.1722 284° West 391 450 38,000  Level Minneapolis Center
08:01PM 44.7906 -83.3781 284° West 390 449 38,000  Level Minneapolis Center
08:02PM 44.8192 -83.5269 285° West 391 450 38,000  Level Minneapolis Center
08:03PM 44.8489 -83.6731 286° West 391 450 38,000  Level Minneapolis Center
08:04PM 44.8781 -83.8206 286° West 391 450 38,000  Level Minneapolis Center
08:05PM 44.9067 -83.9692 285° West 392 451 38,000  Level Minneapolis Center
08:06PM 44.9339 -84.1189 284° West 394 453 38,000  Level Minneapolis Center
08:07PM 44.9650 -84.3008 284° West 397 457 38,000  Level Minneapolis Center
08:08PM 44.9911 -84.4511 284° West 396 456 38,000  Level Minneapolis Center
08:10PM 45.0175 -84.6347 282° West 399 459 38,000  Level Minneapolis Center
08:11PM 45.0250 -84.7925 274° West 406 467 38,000  Level Minneapolis Center
08:12PM 45.0239 -84.9517 269° West 407 468 38,000  Level Minneapolis Center
08:13PM 45.0256 -85.1097 271° West 405 466 38,000  Level Minneapolis Center
08:14PM 45.0272 -85.2689 271° West 406 467 38,000  Level Minneapolis Center
08:15PM 45.0269 -85.4586 270° West 405 466 38,000  Level Minneapolis Center
08:16PM 45.0278 -85.6158 270° West 404 465 38,000  Level Minneapolis Center
08:17PM 45.0264 -85.7739 269° West 404 465 38,000  Level Minneapolis Center
08:18PM 45.0281 -85.9331 271° West 406 467 38,000  Level Minneapolis Center
08:19PM 45.0275 -86.0906 270° West 404 465 38,000  Level Minneapolis Center
08:20PM 45.0281 -86.2797 270° West 403 464 38,000  Level Minneapolis Center
08:21PM 45.0275 -86.4361 270° West 401 461 38,000  Level Minneapolis Center
08:22PM 45.0264 -86.5931 269° West 400 460 38,000  Level Minneapolis Center
08:23PM 45.0253 -86.7650 270° West 398 458 38,000  Level Minneapolis Center
08:24PM 45.0236 -86.9267 269° West 398 458 38,000  Level Minneapolis Center
08:25PM 45.0225 -87.0833 269° West 399 459 38,000  Level Minneapolis Center
08:26PM 45.0200 -87.2381 269° West 396 456 38,000  Level Minneapolis Center
08:27PM 45.0183 -87.3933 269° West 397 457 38,000  Level Minneapolis Center
08:28PM 45.0158 -87.5478 269° West 396 456 38,000  Level Minneapolis Center
08:29PM 45.0144 -87.7022 269° West 394 453 38,000  Level Minneapolis Center
08:30PM 45.0108 -87.8878 268° West 395 455 38,000  Level Minneapolis Center
08:31PM 45.0081 -88.0433 269° West 396 456 38,000  Level Minneapolis Center
08:32PM 45.0058 -88.1983 269° West 396 456 38,000  Level Minneapolis Center
08:33PM 45.0028 -88.3725 269° West 397 457 38,000  Level Minneapolis Center
08:34PM 45.0000 -88.5283 269° West 398 458 38,000  Level Minneapolis Center
08:35PM 44.9961 -88.6839 268° West 397 457 38,000  Level Minneapolis Center
08:36PM 44.9931 -88.8406 268° West 398 458 38,000  Level Minneapolis Center
08:38PM 44.9872 -88.9978 267° West 401 461 38,000 -300 Level Minneapolis Center
08:39PM 44.9828 -89.1825 268° West 404 465 37,400 -780 Descending Minneapolis Center
08:40PM 44.9906 -89.3344 274° West 396 456 36,500 -900 Descending Minneapolis Center
08:41PM 45.0089 -89.4897 280° West 400 460 35,600 -960 Descending Minneapolis Center
08:42PM 45.0264 -89.6447 279° West 401 461 34,600 -1,080 Descending Minneapolis Center
08:43PM 45.0467 -89.8189 279° West 400 460 33,400 -1,200 Descending Minneapolis Center
08:44PM 45.0553 -89.9767 274° West 402 463 32,200 -720 Descending Minneapolis Center
08:45PM 45.0606 -90.1306 273° West 394 453 32,000 -120 Descending Minneapolis Center
08:46PM 45.0592 -90.2864 269° West 395 455 32,000  Level Minneapolis Center
08:47PM 45.0589 -90.4467 270° West 404 465 32,000  Level Minneapolis Center
08:48PM 45.0603 -90.6078 271° West 409 471 32,000 -1,020 Level Minneapolis Center
08:49PM 45.0592 -90.7983 270° West 404 465 30,000 -1,800 Descending Minneapolis Center
08:50PM 45.0589 -90.9375 270° West 404 465 28,300 -1,860 Descending Minneapolis Center
08:51PM 45.0581 -91.0936 270° West 400 460 26,200 -1,680 Descending Minneapolis Center
08:52PM 45.0558 -91.2742 269° West 389 448 24,900 -1,680 Descending Minneapolis Center
08:53PM 45.0558 -91.4258 270° West 387 445 22,800 -2,040 Descending Minneapolis Center
08:54PM 45.0544 -91.5750 269° West 385 443 20,700 -2,040 Descending Minneapolis Center
08:55PM 45.0561 -91.7183 271° West 371 427 18,600 -1,920 Descending Minneapolis Center
08:56PM 45.0547 -91.8553 269° West 356 410 16,400 -2,340 Descending Minneapolis Center
08:57PM 45.0536 -92.0469 270° West 349 402 13,400 -2,400 Descending Minneapolis Center
08:58PM 45.0514 -92.1825 269° West 346 398 11,300 -1,140 Descending Minneapolis Center
09:00PM 45.0461 -92.3172 267° West 343 395 11,000 -300 Descending Minneapolis Center
09:01PM 45.0244 -92.4461 257° West 341 392 10,700 -1,080 Descending Minneapolis Center
09:02PM 44.9878 -92.5711 248° West 294 338 8,800 -1,800 Descending Minneapolis Center
09:03PM 44.9367 -92.6569 230° Southwest 285 328 7,100 -900 Descending Minneapolis Center
09:04PM 44.8864 -92.7403 230° Southwest 280 322 7,000 -600 Descending Minneapolis Center
09:05PM 44.8400 -92.8186 230° Southwest 264 304 5,900 -1,020 Descending Minneapolis Center
09:06PM 44.7753 -92.8419 194° South 247 284 4,900 -600 Descending Minneapolis Center
09:07PM 44.7578 -92.9100 250° West 190 219 4,700 -360 Descending Minneapolis Center
09:08PM 44.7900 -92.9842 301° West 185 213 4,200 -780 Descending Minneapolis Center
09:09PM 44.8153 -93.0433 301° West 179 206 3,200 -900 Descending Minneapolis Center
09:10PM 44.8386 -93.0958 302° West 162 186 2,400 -780 Descending Minneapolis Center
09:11PM 44.8586 -93.1419 301° West 141 162 1,600 -780 Descending Minneapolis Center
09:13PM 44.8667 -93.2167 245° Southwest  Level FlightAware Approximate
09:20PM 44.8820 -93.2218 245° Southwest  Level Estimated